sensor_id;sensor_type;location;lat;lon;timestamp;P1;durP1;ratioP1;P2;durP2;ratioP2
20593;SDS011;10455;48.732;10.266;2023-12-20T00:01:08;8.83;;;8.10;;
20593;SDS011;10455;48.732;10.266;2023-12-20T00:06:10;9.23;;;8.43;;
20593;SDS011;10455;48.732;10.266;2023-12-20T00:11:13;8.70;;;7.90;;
20593;SDS011;10455;48.732;10.266;2023-12-20T00:16:15;8.93;;;8.07;;
20593;SDS011;10455;48.732;10.266;2023-12-20T00:21:17;8.57;;;7.77;;
20593;SDS011;10455;48.732;10.266;2023-12-20T00:26:20;7.73;;;6.97;;
20593;SDS011;10455;48.732;10.266;2023-12-20T00:31:22;8.77;;;7.97;;
20593;SDS011;10455;48.732;10.266;2023-12-20T00:36:24;8.73;;;7.37;;
20593;SDS011;10455;48.732;10.266;2023-12-20T00:41:27;8.20;;;7.50;;
20593;SDS011;10455;48.732;10.266;2023-12-20T00:46:29;8.77;;;7.87;;
20593;SDS011;10455;48.732;10.266;2023-12-20T00:51:31;8.20;;;7.40;;
20593;SDS011;10455;48.732;10.266;2023-12-20T00:56:34;7.97;;;7.13;;
20593;SDS011;10455;48.732;10.266;2023-12-20T01:01:36;8.43;;;7.67;;
20593;SDS011;10455;48.732;10.266;2023-12-20T01:06:38;12.47;;;7.70;;
20593;SDS011;10455;48.732;10.266;2023-12-20T01:11:41;8.93;;;8.03;;
20593;SDS011;10455;48.732;10.266;2023-12-20T01:16:44;7.80;;;7.17;;
20593;SDS011;10455;48.732;10.266;2023-12-20T01:21:45;9.57;;;7.77;;
20593;SDS011;10455;48.732;10.266;2023-12-20T01:26:49;8.10;;;7.30;;
20593;SDS011;10455;48.732;10.266;2023-12-20T01:31:50;10.07;;;9.07;;
20593;SDS011;10455;48.732;10.266;2023-12-20T01:36:52;10.00;;;9.00;;
20593;SDS011;10455;48.732;10.266;2023-12-20T01:41:56;10.63;;;9.50;;
20593;SDS011;10455;48.732;10.266;2023-12-20T01:46:57;9.60;;;7.93;;
20593;SDS011;10455;48.732;10.266;2023-12-20T01:51:59;8.13;;;7.30;;
20593;SDS011;10455;48.732;10.266;2023-12-20T01:57:04;14.20;;;11.10;;
20593;SDS011;10455;48.732;10.266;2023-12-20T02:02:07;13.73;;;11.13;;
20593;SDS011;10455;48.732;10.266;2023-12-20T02:07:09;13.43;;;11.37;;
20593;SDS011;10455;48.732;10.266;2023-12-20T02:12:13;13.53;;;12.13;;
20593;SDS011;10455;48.732;10.266;2023-12-20T02:17:15;13.90;;;11.23;;
20593;SDS011;10455;48.732;10.266;2023-12-20T02:22:19;13.33;;;11.87;;
20593;SDS011;10455;48.732;10.266;2023-12-20T02:27:21;11.83;;;9.53;;
20593;SDS011;10455;48.732;10.266;2023-12-20T02:32:24;14.97;;;12.10;;
20593;SDS011;10455;48.732;10.266;2023-12-20T02:37:28;10.20;;;9.10;;
20593;SDS011;10455;48.732;10.266;2023-12-20T02:42:30;6.10;;;5.37;;
20593;SDS011;10455;48.732;10.266;2023-12-20T02:47:32;6.63;;;4.50;;
20593;SDS011;10455;48.732;10.266;2023-12-20T02:52:35;6.70;;;5.50;;
20593;SDS011;10455;48.732;10.266;2023-12-20T02:57:37;2.73;;;2.53;;
20593;SDS011;10455;48.732;10.266;2023-12-20T03:02:41;4.00;;;2.80;;
20593;SDS011;10455;48.732;10.266;2023-12-20T03:07:44;6.07;;;2.53;;
20593;SDS011;10455;48.732;10.266;2023-12-20T03:12:47;2.00;;;1.90;;
20593;SDS011;10455;48.732;10.266;2023-12-20T03:17:48;3.40;;;2.33;;
20593;SDS011;10455;48.732;10.266;2023-12-20T03:22:52;3.40;;;2.37;;
20593;SDS011;10455;48.732;10.266;2023-12-20T03:27:53;2.20;;;2.00;;
20593;SDS011;10455;48.732;10.266;2023-12-20T03:32:55;3.10;;;2.23;;
20593;SDS011;10455;48.732;10.266;2023-12-20T03:37:58;2.30;;;2.10;;
20593;SDS011;10455;48.732;10.266;2023-12-20T03:43:01;2.40;;;2.20;;
20593;SDS011;10455;48.732;10.266;2023-12-20T03:48:03;6.97;;;2.07;;
20593;SDS011;10455;48.732;10.266;2023-12-20T03:53:07;2.20;;;2.00;;
20593;SDS011;10455;48.732;10.266;2023-12-20T03:58:09;3.67;;;2.30;;
20593;SDS011;10455;48.732;10.266;2023-12-20T04:03:11;2.33;;;1.97;;
20593;SDS011;10455;48.732;10.266;2023-12-20T04:08:15;2.40;;;2.17;;
20593;SDS011;10455;48.732;10.266;2023-12-20T04:13:17;4.70;;;1.90;;
20593;SDS011;10455;48.732;10.266;2023-12-20T04:18:19;2.83;;;1.97;;
20593;SDS011;10455;48.732;10.266;2023-12-20T04:23:22;2.17;;;1.97;;
20593;SDS011;10455;48.732;10.266;2023-12-20T04:28:24;2.33;;;1.90;;
20593;SDS011;10455;48.732;10.266;2023-12-20T04:33:26;1.87;;;1.67;;
20593;SDS011;10455;48.732;10.266;2023-12-20T04:38:29;2.07;;;1.87;;
20593;SDS011;10455;48.732;10.266;2023-12-20T04:43:31;2.47;;;2.23;;
20593;SDS011;10455;48.732;10.266;2023-12-20T04:48:32;2.63;;;2.43;;
20593;SDS011;10455;48.732;10.266;2023-12-20T04:53:36;2.87;;;2.17;;
20593;SDS011;10455;48.732;10.266;2023-12-20T04:58:38;2.43;;;2.23;;
20593;SDS011;10455;48.732;10.266;2023-12-20T05:03:39;2.00;;;1.80;;
20593;SDS011;10455;48.732;10.266;2023-12-20T05:08:43;1.93;;;1.83;;
20593;SDS011;10455;48.732;10.266;2023-12-20T05:13:45;5.80;;;1.97;;
20593;SDS011;10455;48.732;10.266;2023-12-20T05:18:47;2.00;;;1.90;;
20593;SDS011;10455;48.732;10.266;2023-12-20T05:23:51;2.40;;;2.20;;
20593;SDS011;10455;48.732;10.266;2023-12-20T05:28:54;2.40;;;2.20;;
20593;SDS011;10455;48.732;10.266;2023-12-20T05:33:56;4.27;;;2.23;;
20593;SDS011;10455;48.732;10.266;2023-12-20T05:38:59;2.43;;;2.20;;
20593;SDS011;10455;48.732;10.266;2023-12-20T05:44:01;2.53;;;2.33;;
20593;SDS011;10455;48.732;10.266;2023-12-20T05:49:03;2.53;;;2.33;;
20593;SDS011;10455;48.732;10.266;2023-12-20T05:54:07;3.27;;;2.17;;
20593;SDS011;10455;48.732;10.266;2023-12-20T05:59:10;2.67;;;2.47;;
20593;SDS011;10455;48.732;10.266;2023-12-20T06:04:11;3.50;;;2.50;;
20593;SDS011;10455;48.732;10.266;2023-12-20T06:09:15;2.73;;;2.53;;
20593;SDS011;10455;48.732;10.266;2023-12-20T06:14:16;2.97;;;2.37;;
20593;SDS011;10455;48.732;10.266;2023-12-20T06:19:19;3.97;;;2.40;;
20593;SDS011;10455;48.732;10.266;2023-12-20T06:24:22;4.20;;;2.60;;
20593;SDS011;10455;48.732;10.266;2023-12-20T06:29:27;3.63;;;2.90;;
20593;SDS011;10455;48.732;10.266;2023-12-20T06:34:30;4.00;;;3.67;;
20593;SDS011;10455;48.732;10.266;2023-12-20T06:39:34;3.07;;;2.17;;
20593;SDS011;10455;48.732;10.266;2023-12-20T06:44:36;2.33;;;2.13;;
20593;SDS011;10455;48.732;10.266;2023-12-20T06:49:38;2.30;;;2.00;;
20593;SDS011;10455;48.732;10.266;2023-12-20T06:54:42;2.00;;;1.90;;
20593;SDS011;10455;48.732;10.266;2023-12-20T06:59:44;2.23;;;1.90;;
20593;SDS011;10455;48.732;10.266;2023-12-20T07:04:45;2.97;;;2.77;;
20593;SDS011;10455;48.732;10.266;2023-12-20T07:09:49;2.30;;;2.10;;
20593;SDS011;10455;48.732;10.266;2023-12-20T07:14:51;2.83;;;2.60;;
20593;SDS011;10455;48.732;10.266;2023-12-20T07:19:53;1.63;;;1.53;;
20593;SDS011;10455;48.732;10.266;2023-12-20T07:24:57;2.20;;;1.70;;
20593;SDS011;10455;48.732;10.266;2023-12-20T07:29:59;1.70;;;1.60;;
20593;SDS011;10455;48.732;10.266;2023-12-20T07:35:01;2.23;;;2.03;;
20593;SDS011;10455;48.732;10.266;2023-12-20T07:40:06;2.33;;;2.13;;
20593;SDS011;10455;48.732;10.266;2023-12-20T07:45:11;2.23;;;1.83;;
20593;SDS011;10455;48.732;10.266;2023-12-20T07:50:13;2.87;;;1.97;;
20593;SDS011;10455;48.732;10.266;2023-12-20T07:55:17;1.80;;;1.70;;
20593;SDS011;10455;48.732;10.266;2023-12-20T08:00:20;1.70;;;1.60;;
20593;SDS011;10455;48.732;10.266;2023-12-20T08:05:22;1.70;;;1.60;;
20593;SDS011;10455;48.732;10.266;2023-12-20T08:10:25;2.10;;;1.90;;
20593;SDS011;10455;48.732;10.266;2023-12-20T08:15:29;2.47;;;2.27;;
20593;SDS011;10455;48.732;10.266;2023-12-20T08:20:31;2.10;;;1.90;;
20593;SDS011;10455;48.732;10.266;2023-12-20T08:25:34;2.90;;;2.30;;
20593;SDS011;10455;48.732;10.266;2023-12-20T08:30:36;3.17;;;2.87;;
20593;SDS011;10455;48.732;10.266;2023-12-20T08:35:38;5.50;;;4.30;;
20593;SDS011;10455;48.732;10.266;2023-12-20T08:40:42;4.30;;;3.23;;
20593;SDS011;10455;48.732;10.266;2023-12-20T08:45:44;4.53;;;4.03;;
20593;SDS011;10455;48.732;10.266;2023-12-20T08:50:46;6.13;;;4.20;;
20593;SDS011;10455;48.732;10.266;2023-12-20T08:55:51;3.73;;;3.33;;
20593;SDS011;10455;48.732;10.266;2023-12-20T09:00:53;3.47;;;3.27;;
20593;SDS011;10455;48.732;10.266;2023-12-20T09:05:55;3.87;;;3.57;;
20593;SDS011;10455;48.732;10.266;2023-12-20T09:10:59;2.73;;;2.53;;
20593;SDS011;10455;48.732;10.266;2023-12-20T09:16:02;3.60;;;3.30;;
20593;SDS011;10455;48.732;10.266;2023-12-20T09:21:07;3.67;;;3.03;;
20593;SDS011;10455;48.732;10.266;2023-12-20T09:26:10;3.67;;;3.37;;
20593;SDS011;10455;48.732;10.266;2023-12-20T09:31:12;6.10;;;5.60;;
20593;SDS011;10455;48.732;10.266;2023-12-20T09:36:14;7.53;;;6.13;;
20593;SDS011;10455;48.732;10.266;2023-12-20T09:41:17;8.00;;;7.20;;
20593;SDS011;10455;48.732;10.266;2023-12-20T09:46:19;10.13;;;9.10;;
20593;SDS011;10455;48.732;10.266;2023-12-20T09:51:28;8.70;;;7.93;;
20593;SDS011;10455;48.732;10.266;2023-12-20T09:56:32;7.83;;;7.03;;
20593;SDS011;10455;48.732;10.266;2023-12-20T10:01:35;5.17;;;4.67;;
20593;SDS011;10455;48.732;10.266;2023-12-20T10:06:39;5.67;;;5.27;;
20593;SDS011;10455;48.732;10.266;2023-12-20T10:11:43;4.40;;;4.00;;
20593;SDS011;10455;48.732;10.266;2023-12-20T10:16:45;5.80;;;4.90;;
20593;SDS011;10455;48.732;10.266;2023-12-20T10:21:47;3.60;;;3.40;;
20593;SDS011;10455;48.732;10.266;2023-12-20T10:26:52;3.77;;;3.30;;
20593;SDS011;10455;48.732;10.266;2023-12-20T10:37:27;3.93;;;3.53;;
20593;SDS011;10455;48.732;10.266;2023-12-20T10:42:30;3.97;;;3.10;;
20593;SDS011;10455;48.732;10.266;2023-12-20T10:47:33;4.20;;;3.70;;
20593;SDS011;10455;48.732;10.266;2023-12-20T10:52:37;8.57;;;3.70;;
20593;SDS011;10455;48.732;10.266;2023-12-20T10:57:41;4.00;;;3.37;;
20593;SDS011;10455;48.732;10.266;2023-12-20T11:02:43;4.10;;;3.50;;
20593;SDS011;10455;48.732;10.266;2023-12-20T11:07:46;3.90;;;3.30;;
20593;SDS011;10455;48.732;10.266;2023-12-20T11:12:53;4.87;;;3.03;;
20593;SDS011;10455;48.732;10.266;2023-12-20T11:18:00;5.70;;;3.40;;
20593;SDS011;10455;48.732;10.266;2023-12-20T11:23:02;5.23;;;3.50;;
20593;SDS011;10455;48.732;10.266;2023-12-20T11:28:09;5.40;;;3.30;;
20593;SDS011;10455;48.732;10.266;2023-12-20T11:33:12;6.03;;;3.33;;
20593;SDS011;10455;48.732;10.266;2023-12-20T11:38:14;4.23;;;3.57;;
20593;SDS011;10455;48.732;10.266;2023-12-20T11:43:30;6.43;;;4.10;;
20593;SDS011;10455;48.732;10.266;2023-12-20T11:48:34;6.97;;;3.53;;
20593;SDS011;10455;48.732;10.266;2023-12-20T11:53:36;6.17;;;3.50;;
20593;SDS011;10455;48.732;10.266;2023-12-20T11:58:39;4.50;;;3.70;;
20593;SDS011;10455;48.732;10.266;2023-12-20T12:03:42;6.27;;;4.00;;
20593;SDS011;10455;48.732;10.266;2023-12-20T12:08:44;7.40;;;4.00;;
20593;SDS011;10455;48.732;10.266;2023-12-20T12:13:47;4.33;;;3.63;;
20593;SDS011;10455;48.732;10.266;2023-12-20T12:18:55;4.03;;;3.00;;
20593;SDS011;10455;48.732;10.266;2023-12-20T12:24:05;4.10;;;2.70;;
20593;SDS011;10455;48.732;10.266;2023-12-20T12:29:09;3.93;;;2.70;;
20593;SDS011;10455;48.732;10.266;2023-12-20T12:34:11;8.83;;;7.03;;
20593;SDS011;10455;48.732;10.266;2023-12-20T12:39:13;5.57;;;2.90;;
20593;SDS011;10455;48.732;10.266;2023-12-20T12:44:17;5.93;;;3.10;;
20593;SDS011;10455;48.732;10.266;2023-12-20T12:49:22;5.53;;;2.80;;
20593;SDS011;10455;48.732;10.266;2023-12-20T12:54:24;5.20;;;3.40;;
20593;SDS011;10455;48.732;10.266;2023-12-20T12:59:28;7.90;;;3.17;;
20593;SDS011;10455;48.732;10.266;2023-12-20T13:04:30;4.83;;;2.80;;
20593;SDS011;10455;48.732;10.266;2023-12-20T13:09:32;5.10;;;2.90;;
20593;SDS011;10455;48.732;10.266;2023-12-20T13:14:36;5.90;;;3.37;;
20593;SDS011;10455;48.732;10.266;2023-12-20T13:19:38;5.60;;;4.50;;
20593;SDS011;10455;48.732;10.266;2023-12-20T13:24:40;6.30;;;3.20;;
20593;SDS011;10455;48.732;10.266;2023-12-20T13:29:45;6.03;;;3.10;;
20593;SDS011;10455;48.732;10.266;2023-12-20T13:34:47;4.37;;;3.20;;
20593;SDS011;10455;48.732;10.266;2023-12-20T13:39:50;5.50;;;3.27;;
20593;SDS011;10455;48.732;10.266;2023-12-20T13:44:53;4.90;;;3.00;;
20593;SDS011;10455;48.732;10.266;2023-12-20T13:49:56;4.80;;;2.90;;
20593;SDS011;10455;48.732;10.266;2023-12-20T13:54:57;6.77;;;3.30;;
20593;SDS011;10455;48.732;10.266;2023-12-20T14:00:01;6.83;;;2.93;;
20593;SDS011;10455;48.732;10.266;2023-12-20T14:05:04;4.97;;;2.73;;
20593;SDS011;10455;48.732;10.266;2023-12-20T14:10:07;4.33;;;3.00;;
20593;SDS011;10455;48.732;10.266;2023-12-20T14:15:11;3.73;;;2.73;;
20593;SDS011;10455;48.732;10.266;2023-12-20T14:20:13;4.30;;;3.13;;
20593;SDS011;10455;48.732;10.266;2023-12-20T14:25:15;3.67;;;3.13;;
20593;SDS011;10455;48.732;10.266;2023-12-20T14:30:19;6.00;;;3.30;;
20593;SDS011;10455;48.732;10.266;2023-12-20T14:35:21;5.63;;;3.37;;
20593;SDS011;10455;48.732;10.266;2023-12-20T14:40:22;6.40;;;3.47;;
20593;SDS011;10455;48.732;10.266;2023-12-20T14:45:26;4.63;;;3.10;;
20593;SDS011;10455;48.732;10.266;2023-12-20T14:50:28;3.63;;;3.20;;
20593;SDS011;10455;48.732;10.266;2023-12-20T14:55:30;4.97;;;3.50;;
20593;SDS011;10455;48.732;10.266;2023-12-20T15:00:33;4.23;;;3.37;;
20593;SDS011;10455;48.732;10.266;2023-12-20T15:05:35;7.90;;;4.00;;
20593;SDS011;10455;48.732;10.266;2023-12-20T15:10:37;4.53;;;3.40;;
20593;SDS011;10455;48.732;10.266;2023-12-20T15:15:41;7.37;;;3.30;;
20593;SDS011;10455;48.732;10.266;2023-12-20T15:20:43;6.67;;;3.80;;
20593;SDS011;10455;48.732;10.266;2023-12-20T15:25:45;6.97;;;3.67;;
20593;SDS011;10455;48.732;10.266;2023-12-20T15:30:48;6.23;;;4.03;;
20593;SDS011;10455;48.732;10.266;2023-12-20T15:35:50;7.30;;;3.77;;
20593;SDS011;10455;48.732;10.266;2023-12-20T15:40:51;6.07;;;3.30;;
20593;SDS011;10455;48.732;10.266;2023-12-20T15:45:55;6.57;;;4.00;;
20593;SDS011;10455;48.732;10.266;2023-12-20T15:50:57;4.37;;;3.47;;
20593;SDS011;10455;48.732;10.266;2023-12-20T15:55:58;8.13;;;3.93;;
20593;SDS011;10455;48.732;10.266;2023-12-20T16:01:02;6.63;;;4.03;;
20593;SDS011;10455;48.732;10.266;2023-12-20T16:06:04;49.53;;;12.33;;
20593;SDS011;10455;48.732;10.266;2023-12-20T16:11:06;7.53;;;4.00;;
20593;SDS011;10455;48.732;10.266;2023-12-20T16:16:10;5.70;;;4.27;;
20593;SDS011;10455;48.732;10.266;2023-12-20T16:21:12;9.37;;;4.13;;
20593;SDS011;10455;48.732;10.266;2023-12-20T16:26:14;7.80;;;4.40;;
20593;SDS011;10455;48.732;10.266;2023-12-20T16:31:17;8.77;;;7.13;;
20593;SDS011;10455;48.732;10.266;2023-12-20T16:36:19;30.33;;;23.47;;
20593;SDS011;10455;48.732;10.266;2023-12-20T16:41:21;8.93;;;6.00;;
20593;SDS011;10455;48.732;10.266;2023-12-20T16:46:24;6.90;;;4.80;;
20593;SDS011;10455;48.732;10.266;2023-12-20T16:51:26;7.73;;;4.87;;
20593;SDS011;10455;48.732;10.266;2023-12-20T16:56:29;7.53;;;5.27;;
20593;SDS011;10455;48.732;10.266;2023-12-20T17:01:32;7.47;;;5.30;;
20593;SDS011;10455;48.732;10.266;2023-12-20T17:06:34;5.70;;;4.33;;
20593;SDS011;10455;48.732;10.266;2023-12-20T17:11:37;6.23;;;4.57;;
20593;SDS011;10455;48.732;10.266;2023-12-20T17:16:40;8.00;;;6.70;;
20593;SDS011;10455;48.732;10.266;2023-12-20T17:21:42;6.90;;;4.77;;
20593;SDS011;10455;48.732;10.266;2023-12-20T17:26:44;6.33;;;4.63;;
20593;SDS011;10455;48.732;10.266;2023-12-20T17:31:47;4.97;;;4.53;;
20593;SDS011;10455;48.732;10.266;2023-12-20T17:36:49;6.00;;;4.43;;
20593;SDS011;10455;48.732;10.266;2023-12-20T17:41:51;6.20;;;5.27;;
20593;SDS011;10455;48.732;10.266;2023-12-20T17:46:54;7.37;;;3.83;;
20593;SDS011;10455;48.732;10.266;2023-12-20T17:51:56;5.23;;;4.20;;
20593;SDS011;10455;48.732;10.266;2023-12-20T17:56:58;4.60;;;3.53;;
20593;SDS011;10455;48.732;10.266;2023-12-20T18:02:02;3.67;;;3.27;;
20593;SDS011;10455;48.732;10.266;2023-12-20T18:07:04;4.03;;;3.20;;
20593;SDS011;10455;48.732;10.266;2023-12-20T18:12:06;4.80;;;3.00;;
20593;SDS011;10455;48.732;10.266;2023-12-20T18:17:09;3.07;;;2.87;;
20593;SDS011;10455;48.732;10.266;2023-12-20T18:22:11;3.37;;;3.13;;
20593;SDS011;10455;48.732;10.266;2023-12-20T18:27:13;4.40;;;2.60;;
20593;SDS011;10455;48.732;10.266;2023-12-20T18:32:17;4.93;;;3.30;;
20593;SDS011;10455;48.732;10.266;2023-12-20T18:37:19;4.33;;;3.00;;
20593;SDS011;10455;48.732;10.266;2023-12-20T18:42:21;3.23;;;2.77;;
20593;SDS011;10455;48.732;10.266;2023-12-20T18:47:24;3.40;;;3.00;;
20593;SDS011;10455;48.732;10.266;2023-12-20T18:52:26;3.17;;;2.90;;
20593;SDS011;10455;48.732;10.266;2023-12-20T18:57:28;4.97;;;4.10;;
20593;SDS011;10455;48.732;10.266;2023-12-20T19:02:32;2.73;;;2.57;;
20593;SDS011;10455;48.732;10.266;2023-12-20T19:07:34;6.77;;;4.37;;
20593;SDS011;10455;48.732;10.266;2023-12-20T19:12:39;13.00;;;6.47;;
20593;SDS011;10455;48.732;10.266;2023-12-20T19:17:42;7.43;;;5.80;;
20593;SDS011;10455;48.732;10.266;2023-12-20T19:22:44;9.87;;;5.30;;
20593;SDS011;10455;48.732;10.266;2023-12-20T19:27:47;10.40;;;7.17;;
20593;SDS011;10455;48.732;10.266;2023-12-20T19:32:50;8.20;;;4.53;;
20593;SDS011;10455;48.732;10.266;2023-12-20T19:37:52;4.20;;;2.97;;
20593;SDS011;10455;48.732;10.266;2023-12-20T19:42:54;4.17;;;3.73;;
20593;SDS011;10455;48.732;10.266;2023-12-20T19:47:58;3.27;;;2.83;;
20593;SDS011;10455;48.732;10.266;2023-12-20T19:53:00;3.83;;;2.73;;
20593;SDS011;10455;48.732;10.266;2023-12-20T19:58:02;8.90;;;4.63;;
20593;SDS011;10455;48.732;10.266;2023-12-20T20:03:05;6.43;;;5.20;;
20593;SDS011;10455;48.732;10.266;2023-12-20T20:08:07;5.50;;;4.70;;
20593;SDS011;10455;48.732;10.266;2023-12-20T20:13:09;5.33;;;3.57;;
20593;SDS011;10455;48.732;10.266;2023-12-20T20:18:12;3.50;;;3.20;;
20593;SDS011;10455;48.732;10.266;2023-12-20T20:23:15;4.93;;;3.30;;
20593;SDS011;10455;48.732;10.266;2023-12-20T20:28:17;3.33;;;3.03;;
20593;SDS011;10455;48.732;10.266;2023-12-20T20:33:21;5.83;;;3.23;;
20593;SDS011;10455;48.732;10.266;2023-12-20T20:38:23;3.53;;;2.80;;
20593;SDS011;10455;48.732;10.266;2023-12-20T20:43:26;3.33;;;2.80;;
20593;SDS011;10455;48.732;10.266;2023-12-20T20:48:29;4.67;;;3.17;;
20593;SDS011;10455;48.732;10.266;2023-12-20T20:53:31;3.27;;;2.80;;
20593;SDS011;10455;48.732;10.266;2023-12-20T20:58:33;7.13;;;4.30;;
20593;SDS011;10455;48.732;10.266;2023-12-20T21:03:37;6.40;;;3.10;;
20593;SDS011;10455;48.732;10.266;2023-12-20T21:08:39;5.23;;;3.13;;
20593;SDS011;10455;48.732;10.266;2023-12-20T21:13:40;3.10;;;2.80;;
20593;SDS011;10455;48.732;10.266;2023-12-20T21:18:44;3.43;;;2.80;;
20593;SDS011;10455;48.732;10.266;2023-12-20T21:23:46;3.20;;;2.80;;
20593;SDS011;10455;48.732;10.266;2023-12-20T21:28:53;2.80;;;2.60;;
20593;SDS011;10455;48.732;10.266;2023-12-20T21:33:57;3.83;;;2.53;;
20593;SDS011;10455;48.732;10.266;2023-12-20T21:38:59;5.67;;;3.07;;
20593;SDS011;10455;48.732;10.266;2023-12-20T21:44:01;5.33;;;2.80;;
20593;SDS011;10455;48.732;10.266;2023-12-20T21:49:04;5.27;;;3.37;;
20593;SDS011;10455;48.732;10.266;2023-12-20T21:54:09;2.77;;;2.53;;
20593;SDS011;10455;48.732;10.266;2023-12-20T21:59:11;4.13;;;2.67;;
20593;SDS011;10455;48.732;10.266;2023-12-20T22:04:14;5.33;;;2.87;;
20593;SDS011;10455;48.732;10.266;2023-12-20T22:09:16;4.43;;;2.87;;
20593;SDS011;10455;48.732;10.266;2023-12-20T22:14:18;3.53;;;2.70;;
20593;SDS011;10455;48.732;10.266;2023-12-20T22:19:22;4.83;;;3.07;;
20593;SDS011;10455;48.732;10.266;2023-12-20T22:24:24;5.97;;;2.70;;
20593;SDS011;10455;48.732;10.266;2023-12-20T22:29:26;3.40;;;2.67;;
20593;SDS011;10455;48.732;10.266;2023-12-20T22:34:30;4.07;;;3.30;;
20593;SDS011;10455;48.732;10.266;2023-12-20T22:39:32;2.90;;;2.50;;
20593;SDS011;10455;48.732;10.266;2023-12-20T22:44:34;3.40;;;3.10;;
20593;SDS011;10455;48.732;10.266;2023-12-20T22:49:37;3.17;;;2.70;;
20593;SDS011;10455;48.732;10.266;2023-12-20T22:54:39;3.90;;;2.57;;
20593;SDS011;10455;48.732;10.266;2023-12-20T22:59:41;4.80;;;2.90;;
20593;SDS011;10455;48.732;10.266;2023-12-20T23:04:44;3.97;;;2.77;;
20593;SDS011;10455;48.732;10.266;2023-12-20T23:09:46;4.03;;;2.50;;
20593;SDS011;10455;48.732;10.266;2023-12-20T23:14:48;2.67;;;2.43;;
20593;SDS011;10455;48.732;10.266;2023-12-20T23:19:53;3.00;;;2.80;;
20593;SDS011;10455;48.732;10.266;2023-12-20T23:24:54;2.87;;;2.50;;
20593;SDS011;10455;48.732;10.266;2023-12-20T23:29:56;4.60;;;2.90;;
20593;SDS011;10455;48.732;10.266;2023-12-20T23:35:00;3.10;;;2.90;;
20593;SDS011;10455;48.732;10.266;2023-12-20T23:40:01;6.00;;;2.53;;
20593;SDS011;10455;48.732;10.266;2023-12-20T23:45:05;2.90;;;2.60;;
20593;SDS011;10455;48.732;10.266;2023-12-20T23:50:10;2.50;;;2.30;;
20593;SDS011;10455;48.732;10.266;2023-12-20T23:55:12;2.37;;;2.27;;
